Terminal Aerodrome Forecast
Issued by NWS

Home | Current Version | Previous Version | Text Only | Print | Product List | Glossary Off
Versions: 1 2 3 4 5 6 7 8 9 10 11 12 13 14 15 16

276
FTUS43 KTOP 081734
TAFFOE
TAF
KFOE 081734Z 0818/0918 33025G36KT P6SM BKN040
     FM090000 32017G25KT P6SM SCT040=

USA.gov is the U.S. government's official web portal to all federal, state and local government web resources and services.